createdAt,value
2024-01-29T00:01:49.982Z,16.26
2024-01-29T00:04:17.623Z,16.31
2024-01-29T00:06:45.445Z,16.36
2024-01-29T00:09:13.027Z,16.37
2024-01-29T00:11:40.695Z,16.36
2024-01-29T00:14:08.300Z,16.34
2024-01-29T00:16:37.218Z,16.37
2024-01-29T00:19:05.986Z,16.38
2024-01-29T00:21:33.621Z,16.38
2024-01-29T00:24:02.217Z,16.41
2024-01-29T00:26:29.933Z,16.40
2024-01-29T00:28:57.913Z,16.36
2024-01-29T00:31:25.439Z,16.38
2024-01-29T00:33:54.660Z,16.36
2024-01-29T00:36:22.309Z,16.28
2024-01-29T00:38:49.845Z,16.28
2024-01-29T00:41:17.338Z,16.26
2024-01-29T00:43:45.102Z,16.25
2024-01-29T00:46:12.807Z,16.25
2024-01-29T00:48:40.397Z,16.25
2024-01-29T00:51:09.297Z,16.24
2024-01-29T00:53:36.803Z,16.32
2024-01-29T00:56:04.598Z,16.30
2024-01-29T00:58:32.118Z,16.34
2024-01-29T01:00:59.817Z,16.18
2024-01-29T01:03:27.636Z,16.17
2024-01-29T01:05:55.277Z,16.13
2024-01-29T01:08:24.291Z,16.23
2024-01-29T01:10:51.845Z,16.27
2024-01-29T01:13:19.368Z,16.37
2024-01-29T01:15:46.948Z,16.39
2024-01-29T01:18:14.558Z,16.41
2024-01-29T01:20:42.092Z,16.37
2024-01-29T01:23:09.614Z,16.27
2024-01-29T01:25:38.467Z,16.26
2024-01-29T01:28:07.612Z,16.25
2024-01-29T01:30:35.217Z,16.23
2024-01-29T01:33:02.830Z,16.24
2024-01-29T01:35:30.369Z,16.25
2024-01-29T01:37:57.996Z,16.24
2024-01-29T01:40:25.555Z,16.24
2024-01-29T01:42:54.473Z,16.22
2024-01-29T01:45:22.087Z,16.25
2024-01-29T01:47:49.723Z,16.27
2024-01-29T01:50:17.315Z,16.25
2024-01-29T01:52:44.937Z,16.26
2024-01-29T01:55:12.812Z,16.27
2024-01-29T01:57:40.500Z,16.31
2024-01-29T02:00:12.442Z,16.30
2024-01-29T02:02:40.018Z,16.29
2024-01-29T02:05:08.480Z,16.32
2024-01-29T02:07:36.103Z,16.27
2024-01-29T02:10:04.058Z,16.26
2024-01-29T02:12:31.708Z,16.13
2024-01-29T02:14:59.225Z,16.16
2024-01-29T02:17:28.092Z,16.16
2024-01-29T02:19:55.668Z,16.13
2024-01-29T02:22:23.743Z,16.15
2024-01-29T02:24:52.665Z,16.19
2024-01-29T02:27:20.292Z,16.23
2024-01-29T02:29:47.872Z,16.28
2024-01-29T02:32:16.968Z,16.37
2024-01-29T02:34:44.586Z,16.31
2024-01-29T02:37:12.169Z,16.18
2024-01-29T02:39:39.719Z,16.14
2024-01-29T02:42:08.652Z,16.14
2024-01-29T02:44:36.220Z,16.21
2024-01-29T02:47:03.797Z,16.20
2024-01-29T02:49:31.423Z,16.19
2024-01-29T02:51:59.766Z,16.27
2024-01-29T02:54:27.359Z,16.35
2024-01-29T02:56:54.938Z,16.39
2024-01-29T02:59:23.771Z,16.33
2024-01-29T03:01:51.334Z,16.26
2024-01-29T03:04:18.935Z,16.31
2024-01-29T03:06:46.518Z,16.28
2024-01-29T03:09:14.467Z,16.30
2024-01-29T03:11:41.968Z,16.26
2024-01-29T03:14:09.500Z,16.29
2024-01-29T03:16:38.361Z,16.30
2024-01-29T03:19:06.051Z,16.26
2024-01-29T03:21:34.317Z,16.23
2024-01-29T03:24:01.844Z,16.22
2024-01-29T03:26:29.882Z,16.22
2024-01-29T03:28:57.613Z,16.25
2024-01-29T03:31:25.113Z,16.25
2024-01-29T03:33:53.979Z,16.30
2024-01-29T03:36:21.655Z,16.34
2024-01-29T03:38:49.200Z,16.31
2024-01-29T03:41:16.801Z,16.36
2024-01-29T03:43:44.306Z,16.29
2024-01-29T03:46:11.847Z,16.32
2024-01-29T03:48:39.636Z,16.31
2024-01-29T03:51:08.633Z,16.29
2024-01-29T03:53:36.189Z,16.29
2024-01-29T03:56:03.980Z,16.26
2024-01-29T03:58:31.640Z,16.24
2024-01-29T04:00:59.353Z,16.25
2024-01-29T04:03:27.401Z,16.24
2024-01-29T04:05:55.032Z,16.28
2024-01-29T04:08:23.920Z,16.31
2024-01-29T04:10:52.148Z,16.29
2024-01-29T04:13:19.622Z,16.30
2024-01-29T04:15:47.211Z,16.30
2024-01-29T04:18:14.876Z,16.29
2024-01-29T04:20:42.433Z,16.32
2024-01-29T04:23:10.287Z,16.33
2024-01-29T04:25:39.200Z,16.38
2024-01-29T04:28:07.144Z,16.34
2024-01-29T04:30:34.670Z,16.37
2024-01-29T04:33:02.201Z,16.33
2024-01-29T04:35:29.749Z,16.36
2024-01-29T04:37:57.242Z,16.42
2024-01-29T04:40:24.876Z,16.44
2024-01-29T04:42:53.781Z,16.42
2024-01-29T04:45:21.343Z,16.44
2024-01-29T04:47:48.941Z,16.32
2024-01-29T04:50:16.910Z,16.29
2024-01-29T04:52:44.705Z,16.22
2024-01-29T04:55:13.274Z,16.21
2024-01-29T04:57:41.030Z,16.30
2024-01-29T05:00:11.367Z,16.30
2024-01-29T05:02:38.904Z,16.27
2024-01-29T05:05:06.955Z,16.26
2024-01-29T05:07:34.506Z,16.26
2024-01-29T05:10:02.062Z,16.30
2024-01-29T05:12:30.053Z,16.34
2024-01-29T05:14:57.599Z,16.46
2024-01-29T05:17:27.235Z,16.37
2024-01-29T05:19:54.810Z,16.38
2024-01-29T05:22:23.040Z,16.30
2024-01-29T05:24:50.642Z,16.28
2024-01-29T05:27:18.270Z,16.40
2024-01-29T05:29:45.885Z,16.28
2024-01-29T05:32:13.479Z,16.26
2024-01-29T05:34:42.482Z,16.24
2024-01-29T05:37:09.977Z,16.34
2024-01-29T05:39:37.604Z,16.46
2024-01-29T05:42:05.801Z,16.40
2024-01-29T05:44:33.309Z,16.31
2024-01-29T05:47:00.806Z,16.28
2024-01-29T05:49:28.414Z,16.25
2024-01-29T05:51:57.349Z,16.29
2024-01-29T05:54:25.373Z,16.30
2024-01-29T05:56:52.893Z,16.36
2024-01-29T05:59:19.489Z,16.26
2024-01-29T06:01:47.532Z,16.23
2024-01-29T06:04:15.469Z,16.19
2024-01-29T06:06:44.452Z,16.24
2024-01-29T06:09:13.334Z,16.26
2024-01-29T06:11:40.844Z,16.36
2024-01-29T06:14:08.542Z,16.37
2024-01-29T06:16:36.394Z,16.29
2024-01-29T06:19:04.050Z,16.21
2024-01-29T06:21:31.728Z,16.25
2024-01-29T06:23:59.271Z,16.31
2024-01-29T06:26:28.167Z,16.28
2024-01-29T06:28:56.224Z,16.22
2024-01-29T06:31:25.268Z,16.06
2024-01-29T06:33:55.921Z,16.02
2024-01-29T06:36:25.218Z,16.02
2024-01-29T06:38:52.773Z,16.06
2024-01-29T06:41:21.322Z,16.09
2024-01-29T06:43:50.190Z,16.10
2024-01-29T06:46:18.005Z,16.16
2024-01-29T06:48:45.770Z,16.26
2024-01-29T06:51:16.059Z,16.21
2024-01-29T06:53:43.844Z,16.20
2024-01-29T06:56:11.384Z,16.16
2024-01-29T06:58:38.937Z,16.14
2024-01-29T07:01:07.947Z,16.15
2024-01-29T07:03:35.414Z,16.22
2024-01-29T07:06:03.223Z,16.32
2024-01-29T07:08:30.825Z,16.31
2024-01-29T07:10:58.361Z,16.26
2024-01-29T07:13:25.908Z,16.21
2024-01-29T07:15:53.961Z,16.17
2024-01-29T07:18:24.035Z,16.15
2024-01-29T07:20:51.620Z,16.19
2024-01-29T07:23:19.793Z,16.29
2024-01-29T07:25:47.281Z,16.21
2024-01-29T07:28:15.013Z,16.17
2024-01-29T07:30:42.674Z,16.21
2024-01-29T07:33:12.086Z,16.21
2024-01-29T07:35:41.050Z,16.28
2024-01-29T07:38:08.603Z,16.26
2024-01-29T07:40:36.118Z,16.23
2024-01-29T07:43:04.139Z,16.26
2024-01-29T07:45:31.759Z,16.23
2024-01-29T07:48:00.293Z,16.19
2024-01-29T07:50:27.880Z,16.21
2024-01-29T07:52:56.772Z,16.20
2024-01-29T07:55:24.369Z,16.20
2024-01-29T07:57:53.704Z,16.22
2024-01-29T08:00:21.958Z,16.23
2024-01-29T08:02:49.638Z,16.23
2024-01-29T08:05:17.386Z,16.27
2024-01-29T08:07:44.984Z,16.32
2024-01-29T08:10:13.937Z,16.47
2024-01-29T08:12:41.280Z,16.42
2024-01-29T08:15:08.990Z,16.45
2024-01-29T08:17:37.679Z,16.37
2024-01-29T08:20:06.195Z,16.35
2024-01-29T08:22:33.887Z,16.31
2024-01-29T08:25:01.519Z,16.29
2024-01-29T08:27:32.336Z,16.25
2024-01-29T08:29:59.908Z,16.22
2024-01-29T08:32:27.471Z,16.15
2024-01-29T08:34:55.212Z,16.20
2024-01-29T08:37:22.803Z,16.19
2024-01-29T08:39:50.468Z,16.19
2024-01-29T08:42:18.021Z,16.19
2024-01-29T08:44:47.112Z,16.20
2024-01-29T08:47:14.668Z,16.22
2024-01-29T08:49:42.284Z,16.23
2024-01-29T08:52:09.926Z,16.23
2024-01-29T08:54:37.514Z,16.23
2024-01-29T08:57:05.529Z,16.27
2024-01-29T08:59:33.324Z,16.30
2024-01-29T09:02:02.389Z,16.29
2024-01-29T09:04:30.103Z,16.32
2024-01-29T09:06:57.715Z,16.32
2024-01-29T09:09:25.289Z,16.34
2024-01-29T09:11:53.041Z,16.32
2024-01-29T09:14:21.378Z,16.33
2024-01-29T09:16:48.939Z,16.37
2024-01-29T09:19:17.950Z,16.39
2024-01-29T09:21:49.571Z,16.41
2024-01-29T09:24:17.154Z,16.41
2024-01-29T09:26:44.650Z,16.41
2024-01-29T09:29:12.195Z,16.41
2024-01-29T09:31:39.794Z,16.42
2024-01-29T09:34:07.379Z,16.41
2024-01-29T09:36:37.358Z,16.43
2024-01-29T09:39:06.210Z,16.43
2024-01-29T09:41:35.082Z,16.41
2024-01-29T09:44:05.120Z,16.44
2024-01-29T09:46:32.680Z,16.51
2024-01-29T09:49:00.430Z,16.46
2024-01-29T09:51:28.335Z,16.43
2024-01-29T09:53:57.255Z,16.42
2024-01-29T09:56:26.161Z,16.44
2024-01-29T09:58:53.707Z,16.46
2024-01-29T10:01:21.520Z,16.52
2024-01-29T10:03:49.889Z,16.48
2024-01-29T10:06:17.521Z,16.46
2024-01-29T10:08:45.050Z,16.48
2024-01-29T10:11:13.874Z,16.48
2024-01-29T10:13:41.527Z,16.50
2024-01-29T10:16:09.338Z,16.52
2024-01-29T10:18:37.738Z,16.51
2024-01-29T10:21:06.368Z,16.48
2024-01-29T10:23:34.050Z,16.52
2024-01-29T10:26:02.096Z,16.51
2024-01-29T10:28:31.100Z,16.51
2024-01-29T10:30:59.419Z,16.52
2024-01-29T10:33:27.288Z,16.52
2024-01-29T10:35:55.038Z,16.60
2024-01-29T10:38:24.019Z,16.57
2024-01-29T10:40:51.594Z,16.54
2024-01-29T10:43:20.831Z,16.58
2024-01-29T10:45:53.116Z,16.57
2024-01-29T10:48:22.560Z,16.60
2024-01-29T10:50:50.699Z,16.58
2024-01-29T10:53:18.712Z,16.58
2024-01-29T10:55:46.624Z,16.59
2024-01-29T10:58:14.715Z,16.59
2024-01-29T11:00:42.766Z,16.64
2024-01-29T11:03:12.823Z,16.64
2024-01-29T11:05:41.236Z,16.77
2024-01-29T11:08:11.101Z,16.81
2024-01-29T11:10:38.780Z,16.88
2024-01-29T11:13:06.897Z,16.86
2024-01-29T11:15:34.574Z,16.91
2024-01-29T11:18:02.248Z,16.93
2024-01-29T11:20:32.342Z,16.93
2024-01-29T11:22:59.972Z,17.01
2024-01-29T11:25:27.983Z,16.99
2024-01-29T11:27:56.623Z,16.96
2024-01-29T11:30:25.944Z,16.83
2024-01-29T11:32:54.807Z,16.78
2024-01-29T11:35:28.377Z,16.74
2024-01-29T11:38:08.895Z,16.78
2024-01-29T11:40:37.546Z,16.80
2024-01-29T11:43:10.647Z,16.81
2024-01-29T11:45:38.291Z,16.84
2024-01-29T11:48:10.481Z,16.79
2024-01-29T11:50:38.204Z,16.77
2024-01-29T11:53:06.392Z,16.79
2024-01-29T11:55:35.440Z,16.79
2024-01-29T11:58:04.532Z,16.81
2024-01-29T12:00:32.121Z,16.81
2024-01-29T12:02:59.669Z,16.77
2024-01-29T12:05:27.259Z,16.76
2024-01-29T12:07:55.038Z,16.75
2024-01-29T12:10:22.975Z,16.74
2024-01-29T12:12:51.862Z,16.75
2024-01-29T12:15:19.785Z,16.75
2024-01-29T12:17:50.866Z,16.80
2024-01-29T12:20:19.578Z,16.75
2024-01-29T12:22:47.105Z,16.74
2024-01-29T12:25:14.803Z,16.73
2024-01-29T12:27:42.427Z,16.69
2024-01-29T12:30:13.341Z,16.67
2024-01-29T12:32:41.163Z,16.64
2024-01-29T12:35:29.333Z,16.67
2024-01-29T12:38:05.469Z,16.69
2024-01-29T12:40:33.057Z,16.73
2024-01-29T12:43:01.720Z,16.73
2024-01-29T12:45:30.691Z,16.72
2024-01-29T12:48:06.619Z,16.75
2024-01-29T12:50:34.442Z,16.79
2024-01-29T12:53:02.245Z,16.77
2024-01-29T12:55:29.778Z,16.78
2024-01-29T12:57:57.390Z,16.74
2024-01-29T13:00:26.105Z,16.77
2024-01-29T13:02:54.972Z,16.85
2024-01-29T13:05:22.679Z,16.81
2024-01-29T13:07:50.301Z,16.78
2024-01-29T13:10:18.010Z,16.82
2024-01-29T13:12:45.667Z,16.82
2024-01-29T13:15:13.252Z,16.90
2024-01-29T13:17:41.452Z,16.84
2024-01-29T13:20:12.399Z,16.88
2024-01-29T13:22:40.090Z,16.83
2024-01-29T13:25:07.996Z,16.82
2024-01-29T13:27:35.817Z,16.81
2024-01-29T13:30:03.691Z,16.84
2024-01-29T13:32:31.243Z,16.83
2024-01-29T13:34:58.899Z,16.82
2024-01-29T13:37:27.799Z,16.82
2024-01-29T13:39:55.331Z,16.81
2024-01-29T13:42:22.865Z,16.78
2024-01-29T13:44:50.377Z,16.79
2024-01-29T13:47:18.652Z,16.77
2024-01-29T13:49:46.495Z,16.75
2024-01-29T13:52:14.088Z,16.70
2024-01-29T13:54:43.413Z,16.66
2024-01-29T13:57:11.984Z,16.66
2024-01-29T13:59:39.541Z,16.69
2024-01-29T14:02:07.116Z,16.70
2024-01-29T14:04:34.707Z,16.74
2024-01-29T14:07:02.310Z,16.73
2024-01-29T14:09:31.836Z,16.75
2024-01-29T14:12:00.703Z,16.77
2024-01-29T14:14:37.180Z,16.74
2024-01-29T14:17:08.580Z,16.68
2024-01-29T14:19:36.143Z,16.68
2024-01-29T14:22:04.652Z,16.66
2024-01-29T14:24:33.953Z,16.67
2024-01-29T14:27:02.901Z,16.71
2024-01-29T14:29:30.552Z,16.68
2024-01-29T14:31:58.065Z,16.75
2024-01-29T14:34:25.763Z,16.72
2024-01-29T14:36:53.408Z,16.74
2024-01-29T14:39:21.065Z,16.75
2024-01-29T14:41:48.877Z,16.72
2024-01-29T14:44:17.860Z,16.74
2024-01-29T14:46:45.258Z,16.77
2024-01-29T14:49:14.873Z,16.78
2024-01-29T14:51:42.581Z,16.78
2024-01-29T14:54:10.327Z,16.74
2024-01-29T14:56:38.887Z,16.73
2024-01-29T14:59:07.336Z,16.74
2024-01-29T15:01:41.072Z,16.83
2024-01-29T15:04:12.387Z,16.88
2024-01-29T15:06:40.790Z,16.86
2024-01-29T15:09:08.941Z,16.86
2024-01-29T15:11:36.925Z,16.84
2024-01-29T15:14:04.734Z,16.84
2024-01-29T15:16:32.267Z,16.84
2024-01-29T15:19:01.614Z,16.82
2024-01-29T15:21:29.319Z,16.80
2024-01-29T15:23:58.776Z,16.76
2024-01-29T15:26:29.007Z,16.74
2024-01-29T15:28:56.584Z,16.80
2024-01-29T15:31:25.275Z,16.80
2024-01-29T15:33:53.242Z,16.78
2024-01-29T15:36:22.275Z,16.77
2024-01-29T15:38:49.928Z,16.83
2024-01-29T15:41:17.904Z,16.81
2024-01-29T15:43:45.504Z,16.82
2024-01-29T15:46:13.344Z,16.82
2024-01-29T15:48:41.003Z,16.80
2024-01-29T15:51:08.600Z,16.78
2024-01-29T15:53:37.924Z,16.72
2024-01-29T15:56:06.322Z,16.69
2024-01-29T15:58:33.882Z,16.67
2024-01-29T16:01:01.563Z,16.63
2024-01-29T16:03:29.484Z,16.63
2024-01-29T16:05:57.125Z,16.60
2024-01-29T16:08:24.843Z,16.52
2024-01-29T16:10:54.486Z,16.60
2024-01-29T16:13:22.041Z,16.55
2024-01-29T16:15:49.636Z,16.54
2024-01-29T16:18:17.819Z,16.57
2024-01-29T16:20:45.358Z,16.68
2024-01-29T16:23:12.845Z,16.66
2024-01-29T16:25:40.437Z,16.67
2024-01-29T16:28:11.621Z,16.63
2024-01-29T16:30:39.538Z,16.62
2024-01-29T16:33:07.275Z,16.62
2024-01-29T16:35:34.974Z,16.62
2024-01-29T16:38:02.850Z,16.64
2024-01-29T16:40:30.450Z,16.64
2024-01-29T16:42:58.038Z,16.65
2024-01-29T16:45:27.052Z,16.64
2024-01-29T16:47:54.595Z,16.65
2024-01-29T16:50:23.823Z,16.69
2024-01-29T16:52:52.583Z,16.72
2024-01-29T16:55:20.444Z,16.74
2024-01-29T16:57:48.048Z,16.73
2024-01-29T17:00:16.483Z,16.76
2024-01-29T17:02:45.646Z,16.80
2024-01-29T17:05:13.362Z,16.79
2024-01-29T17:07:41.015Z,16.81
2024-01-29T17:10:09.710Z,16.75
2024-01-29T17:12:37.274Z,16.74
2024-01-29T17:15:05.643Z,16.73
2024-01-29T17:17:33.274Z,16.72
2024-01-29T17:20:03.356Z,16.70
2024-01-29T17:22:30.965Z,16.72
2024-01-29T17:24:58.608Z,16.73
2024-01-29T17:27:26.162Z,16.71
2024-01-29T17:29:54.960Z,16.75
2024-01-29T17:32:22.465Z,16.82
2024-01-29T17:34:50.812Z,16.85
2024-01-29T17:37:19.970Z,16.85
2024-01-29T17:39:47.627Z,16.74
2024-01-29T17:42:15.399Z,16.81
2024-01-29T17:44:43.056Z,16.83
2024-01-29T17:47:10.646Z,16.81
2024-01-29T17:49:38.596Z,16.76
2024-01-29T17:52:08.011Z,16.71
2024-01-29T17:54:36.949Z,16.67
2024-01-29T17:57:05.608Z,16.72
2024-01-29T17:59:33.134Z,16.72
2024-01-29T18:02:00.873Z,16.71
2024-01-29T18:04:28.587Z,16.81
2024-01-29T18:06:58.425Z,16.82
2024-01-29T18:09:26.312Z,16.77
2024-01-29T18:11:56.584Z,16.73
2024-01-29T18:14:25.733Z,16.72
2024-01-29T18:16:53.052Z,16.77
2024-01-29T18:19:20.687Z,16.77
2024-01-29T18:21:48.394Z,16.73
2024-01-29T18:24:16.010Z,16.83
2024-01-29T18:26:43.763Z,16.73
2024-01-29T18:29:12.617Z,16.72
2024-01-29T18:31:40.223Z,16.77
2024-01-29T18:34:07.873Z,16.73
2024-01-29T18:36:35.447Z,16.72
2024-01-29T18:39:03.281Z,16.78
2024-01-29T18:41:30.838Z,16.83
2024-01-29T18:43:58.980Z,16.75
2024-01-29T18:46:27.884Z,16.71
2024-01-29T18:48:55.511Z,16.72
2024-01-29T18:51:27.118Z,16.72
2024-01-29T18:53:55.541Z,16.72
2024-01-29T18:56:23.172Z,16.70
2024-01-29T18:58:50.723Z,16.77
2024-01-29T19:01:18.830Z,16.72
2024-01-29T19:03:47.930Z,16.73
2024-01-29T19:06:15.340Z,16.87
2024-01-29T19:08:43.001Z,16.85
2024-01-29T19:11:10.627Z,16.86
2024-01-29T19:13:38.329Z,16.88
2024-01-29T19:16:06.779Z,16.87
2024-01-29T19:18:34.491Z,16.80
2024-01-29T19:21:03.512Z,16.71
2024-01-29T19:23:31.073Z,16.71
2024-01-29T19:25:58.818Z,16.71
2024-01-29T19:28:27.978Z,16.73
2024-01-29T19:30:55.784Z,16.78
2024-01-29T19:33:23.382Z,16.78
2024-01-29T19:35:52.211Z,16.76
2024-01-29T19:38:23.219Z,16.75
2024-01-29T19:40:50.970Z,16.69
2024-01-29T19:43:19.033Z,16.73
2024-01-29T19:45:46.881Z,16.65
2024-01-29T19:48:14.566Z,16.71
2024-01-29T19:50:42.568Z,16.67
2024-01-29T19:53:10.152Z,16.73
2024-01-29T19:55:39.086Z,16.59
2024-01-29T19:58:05.727Z,16.67
2024-01-29T20:00:33.368Z,16.63
2024-01-29T20:03:03.181Z,16.59
2024-01-29T20:05:30.805Z,16.58
2024-01-29T20:07:58.318Z,16.55
2024-01-29T20:10:25.881Z,16.54
2024-01-29T20:12:54.789Z,16.60
2024-01-29T20:15:22.344Z,16.70
2024-01-29T20:17:49.912Z,16.70
2024-01-29T20:20:17.729Z,16.66
2024-01-29T20:22:45.322Z,16.71
2024-01-29T20:25:12.917Z,16.66
2024-01-29T20:27:43.021Z,16.65
2024-01-29T20:30:13.377Z,16.64
2024-01-29T20:32:42.471Z,16.69
2024-01-29T20:35:12.258Z,16.72
2024-01-29T20:37:40.413Z,16.72
2024-01-29T20:40:09.220Z,16.68
2024-01-29T20:42:38.411Z,16.65
2024-01-29T20:45:06.470Z,16.73
2024-01-29T20:47:35.433Z,16.71
2024-01-29T20:50:05.162Z,16.69
2024-01-29T20:52:33.013Z,16.67
2024-01-29T20:55:07.450Z,16.63
2024-01-29T20:57:41.813Z,16.64
2024-01-29T21:00:10.949Z,16.61
2024-01-29T21:02:39.824Z,16.64
2024-01-29T21:05:07.897Z,16.69
2024-01-29T21:07:35.516Z,16.67
2024-01-29T21:10:03.175Z,16.71
2024-01-29T21:12:30.852Z,16.72
2024-01-29T21:15:00.575Z,16.70
2024-01-29T21:17:28.553Z,16.72
2024-01-29T21:19:57.486Z,16.70
2024-01-29T21:22:25.192Z,16.66
2024-01-29T21:24:52.831Z,16.68
2024-01-29T21:27:20.448Z,16.57
2024-01-29T21:29:48.006Z,16.54
2024-01-29T21:32:17.196Z,16.59
2024-01-29T21:34:44.857Z,16.61
2024-01-29T21:37:13.988Z,16.57
2024-01-29T21:39:41.636Z,16.54
2024-01-29T21:42:09.403Z,16.55
2024-01-29T21:44:39.080Z,16.47
2024-01-29T21:47:07.381Z,16.59
2024-01-29T21:49:35.065Z,16.50
2024-01-29T21:52:02.890Z,16.61
2024-01-29T21:54:31.771Z,16.59
2024-01-29T21:56:59.302Z,16.61
2024-01-29T21:59:27.418Z,16.58
2024-01-29T22:01:55.045Z,16.53
2024-01-29T22:04:22.954Z,16.64
2024-01-29T22:06:50.659Z,16.59
2024-01-29T22:09:18.255Z,16.65
2024-01-29T22:11:47.078Z,16.68
2024-01-29T22:14:14.584Z,16.56
2024-01-29T22:16:43.562Z,16.68
2024-01-29T22:19:10.967Z,16.64
2024-01-29T22:21:38.521Z,16.64
2024-01-29T22:24:06.410Z,16.60
2024-01-29T22:26:33.924Z,16.60
2024-01-29T22:29:04.128Z,16.60
2024-01-29T22:31:31.807Z,16.54
2024-01-29T22:33:59.415Z,16.56
2024-01-29T22:36:28.971Z,16.56
2024-01-29T22:38:59.128Z,16.52
2024-01-29T22:41:26.667Z,16.67
2024-01-29T22:43:54.187Z,16.58
2024-01-29T22:46:23.343Z,16.68
2024-01-29T22:48:53.681Z,16.72
2024-01-29T22:51:22.299Z,16.73
2024-01-29T22:53:49.903Z,16.64
2024-01-29T22:56:17.535Z,16.64
2024-01-29T22:58:45.093Z,16.53
2024-01-29T23:01:12.686Z,16.65
2024-01-29T23:03:41.694Z,16.58
2024-01-29T23:06:09.210Z,16.54
2024-01-29T23:08:36.782Z,16.53
2024-01-29T23:11:04.354Z,16.55
2024-01-29T23:13:31.872Z,16.63
2024-01-29T23:15:59.871Z,16.61
2024-01-29T23:18:28.855Z,16.65
2024-01-29T23:20:57.595Z,16.64
2024-01-29T23:23:25.084Z,16.67
2024-01-29T23:25:52.584Z,16.63
2024-01-29T23:28:20.199Z,16.60
2024-01-29T23:30:47.792Z,16.61
2024-01-29T23:33:15.624Z,16.55
2024-01-29T23:35:44.122Z,16.63
2024-01-29T23:38:13.349Z,16.58
2024-01-29T23:40:41.222Z,16.55
2024-01-29T23:43:08.757Z,16.51
2024-01-29T23:45:36.380Z,16.49
2024-01-29T23:48:04.209Z,16.48
2024-01-29T23:50:31.764Z,16.55
2024-01-29T23:52:59.290Z,16.66
2024-01-29T23:55:28.261Z,16.77
2024-01-29T23:57:55.857Z,16.71
